Time;durP1;ratioP1;P1;durP2;ratioP2;P2;SDS_P1;SDS_P2;PMS_P1;PMS_P2;Temp;Humidity;BMP_temperature;BMP_pressure;BME280_temperature;BME280_humidity;BME280_pressure;Samples;Min_cycle;Max_cycle;Signal;HPM_P1;HPM_P2
2022/07/03 00:00:23;;;;;;;5.65;3.00;;;18.30;99.90;;;;;;5040305;28;20096;-74
2022/07/03 00:02:49;;;;;;;6.00;2.88;;;18.30;99.90;;;;;;5052854;28;20017;-74
2022/07/03 00:05:14;;;;;;;5.97;2.60;;;18.30;99.90;;;;;;5053642;28;20437;-75
2022/07/03 00:07:40;;;;;;;5.80;2.90;;;18.30;99.90;;;;;;5054003;28;20101;-75
2022/07/03 00:10:06;;;;;;;4.85;2.92;;;18.20;99.90;;;;;;5053356;28;20469;-75
2022/07/03 00:12:32;;;;;;;4.90;2.60;;;18.20;99.90;;;;;;5053401;28;20036;-74
2022/07/03 00:14:58;;;;;;;5.25;2.28;;;18.10;99.90;;;;;;5053570;28;20321;-75
2022/07/03 00:17:23;;;;;;;5.85;2.58;;;18.10;99.90;;;;;;5053454;28;20032;-75
2022/07/03 00:19:49;;;;;;;5.78;2.50;;;18.10;99.90;;;;;;5053463;28;20020;-75
2022/07/03 00:22:15;;;;;;;8.93;2.70;;;18.10;99.90;;;;;;5053471;28;20057;-75
2022/07/03 00:24:49;;;;;;;5.40;2.30;;;18.10;99.90;;;;;;5050300;28;20025;-75
2022/07/03 00:27:17;;;;;;;4.93;2.53;;;18.00;99.90;;;;;;5044997;28;20021;-75
2022/07/03 00:29:44;;;;;;;4.72;2.10;;;18.00;99.90;;;;;;5053156;28;20055;-74
2022/07/03 00:32:12;;;;;;;4.07;2.20;;;18.00;99.90;;;;;;5054129;28;20024;-75
2022/07/03 00:34:39;;;;;;;5.07;2.00;;;18.00;99.90;;;;;;5053147;28;20044;-74
2022/07/03 00:37:08;;;;;;;5.07;1.90;;;18.00;99.90;;;;;;5054222;28;20017;-75
2022/07/03 00:39:37;;;;;;;2.60;1.65;;;17.90;99.90;;;;;;5053981;28;20025;-75
2022/07/03 00:42:04;;;;;;;3.78;1.80;;;17.90;99.90;;;;;;5053953;28;20032;-75
2022/07/03 00:44:32;;;;;;;3.53;1.70;;;18.00;99.90;;;;;;5053831;28;20744;-74
2022/07/03 00:47:01;;;;;;;5.00;1.63;;;18.00;99.90;;;;;;5053998;28;20020;-74
2022/07/03 00:49:29;;;;;;;3.47;1.50;;;17.90;99.90;;;;;;5053196;28;20036;-75
2022/07/03 00:51:56;;;;;;;2.58;1.40;;;17.90;99.90;;;;;;5053611;28;20232;-75
2022/07/03 00:54:23;;;;;;;3.47;1.40;;;17.90;99.90;;;;;;5052153;28;20100;-74
2022/07/03 00:56:54;;;;;;;1.90;1.38;;;17.90;99.90;;;;;;5052067;28;20122;-74
2022/07/03 00:59:20;;;;;;;3.90;1.27;;;17.90;99.90;;;;;;5052328;28;20032;-74
2022/07/03 01:01:49;;;;;;;3.15;1.20;;;17.90;99.90;;;;;;5044508;28;20026;-74
2022/07/03 01:04:21;;;;;;;3.45;1.13;;;17.90;99.90;;;;;;5052734;28;20021;-75
2022/07/03 01:07:03;;;;;;;2.72;1.20;;;17.90;99.90;;;;;;5052194;28;20036;-74
2022/07/03 01:09:58;;;;;;;4.63;1.20;;;17.90;99.90;;;;;;5035384;28;20029;-74
2022/07/03 01:12:43;;;;;;;4.32;1.30;;;18.00;99.90;;;;;;5032264;28;20033;-75
2022/07/03 01:15:16;;;;;;;3.03;1.20;;;17.90;99.90;;;;;;5047821;28;20025;-75
2022/07/03 01:17:57;;;;;;;4.72;1.42;;;17.90;99.90;;;;;;5053095;28;20045;-75
2022/07/03 01:20:28;;;;;;;3.13;1.25;;;17.90;99.90;;;;;;5051725;28;20029;-75
2022/07/03 01:22:59;;;;;;;3.35;1.10;;;17.90;99.90;;;;;;5034325;28;20049;-75
2022/07/03 01:25:28;;;;;;;3.63;1.10;;;17.90;99.90;;;;;;5049080;28;20424;-75
2022/07/03 01:28:14;;;;;;;5.07;1.10;;;17.90;99.90;;;;;;5054120;28;20021;-75
2022/07/03 01:30:44;;;;;;;2.70;1.13;;;17.90;99.90;;;;;;5052954;28;20014;-74
2022/07/03 01:33:15;;;;;;;4.30;1.20;;;17.90;99.90;;;;;;5051795;28;20108;-75
2022/07/03 01:35:52;;;;;;;2.90;1.08;;;17.90;99.90;;;;;;5052139;28;20043;-75
2022/07/03 01:38:21;;;;;;;3.22;1.05;;;17.80;99.90;;;;;;5044031;28;20041;-75
2022/07/03 01:40:50;;;;;;;2.75;1.00;;;17.90;99.90;;;;;;5033730;28;20489;-76
2022/07/03 01:43:18;;;;;;;4.93;1.10;;;17.90;99.90;;;;;;5053209;28;20029;-75
2022/07/03 01:45:47;;;;;;;5.93;1.25;;;17.90;99.90;;;;;;5052915;28;20076;-74
2022/07/03 01:48:14;;;;;;;2.67;1.00;;;17.90;99.90;;;;;;5053034;28;20469;-75
2022/07/03 01:50:41;;;;;;;2.72;1.05;;;17.90;99.90;;;;;;5052993;28;20376;-75
2022/07/03 01:53:09;;;;;;;2.10;0.85;;;17.90;99.90;;;;;;5053144;28;20049;-75
2022/07/03 01:55:38;;;;;;;3.95;1.00;;;17.80;99.90;;;;;;5052622;28;20056;-75
2022/07/03 01:58:03;;;;;;;4.53;0.90;;;17.90;99.90;;;;;;5053156;28;20025;-75
2022/07/03 02:00:30;;;;;;;4.72;1.10;;;17.80;99.90;;;;;;5053237;28;20017;-75
2022/07/03 02:02:57;;;;;;;3.83;1.25;;;17.80;99.90;;;;;;5052697;28;20089;-74
2022/07/03 02:05:55;;;;;;;5.47;1.10;;;17.80;99.90;;;;;;5055124;28;20037;-74
2022/07/03 02:08:58;;;;;;;2.47;0.90;;;17.80;99.90;;;;;;5051504;28;20045;-75
2022/07/03 02:11:27;;;;;;;4.78;1.00;;;17.80;99.90;;;;;;5056048;28;20070;-75
2022/07/03 02:14:11;;;;;;;4.57;1.00;;;17.80;99.90;;;;;;5042507;28;20025;-75
2022/07/03 02:17:07;;;;;;;4.57;1.35;;;17.80;99.90;;;;;;5056149;28;20020;-74
2022/07/03 02:19:52;;;;;;;5.30;1.20;;;17.80;99.90;;;;;;5055974;28;20092;-75
2022/07/03 02:22:20;;;;;;;3.45;1.17;;;17.80;99.90;;;;;;5041554;28;20385;-75
2022/07/03 02:24:46;;;;;;;4.47;1.20;;;17.80;99.90;;;;;;5056526;28;20065;-75
2022/07/03 02:27:28;;;;;;;4.80;0.98;;;17.80;99.90;;;;;;5056946;28;20055;-74
2022/07/03 02:30:03;;;;;;;7.25;1.40;;;17.70;99.90;;;;;;5056259;28;20029;-75
2022/07/03 02:32:33;;;;;;;7.43;1.15;;;17.70;99.90;;;;;;5055561;28;20037;-75
2022/07/03 02:35:04;;;;;;;6.50;1.13;;;17.70;99.90;;;;;;5055644;28;20131;-75
2022/07/03 02:37:38;;;;;;;4.30;1.00;;;17.70;99.90;;;;;;5054990;28;20576;-75
2022/07/03 02:40:09;;;;;;;3.72;1.13;;;17.70;99.90;;;;;;5055619;28;20025;-75
2022/07/03 02:42:47;;;;;;;6.82;1.30;;;17.70;99.90;;;;;;5040558;28;20098;-75
2022/07/03 02:45:12;;;;;;;2.97;1.08;;;17.70;99.90;;;;;;5055059;28;20485;-75
2022/07/03 02:48:02;;;;;;;7.03;1.38;;;17.70;99.90;;;;;;5054933;28;20079;-75
2022/07/03 02:50:31;;;;;;;6.13;1.20;;;17.70;99.90;;;;;;5054663;28;20108;-75
2022/07/03 02:53:30;;;;;;;3.50;1.05;;;17.70;99.90;;;;;;5054659;28;20104;-75
2022/07/03 02:56:14;;;;;;;5.40;1.20;;;17.70;99.90;;;;;;5036655;28;20037;-75
2022/07/03 02:59:11;;;;;;;6.25;1.27;;;17.70;99.90;;;;;;5054700;28;20384;-75
2022/07/03 03:01:46;;;;;;;4.70;1.25;;;17.70;99.90;;;;;;5054323;28;20036;-75
2022/07/03 03:04:32;;;;;;;5.95;1.17;;;17.60;99.90;;;;;;5054367;28;20109;-74
2022/07/03 03:07:08;;;;;;;4.47;1.20;;;17.70;99.90;;;;;;5054004;28;20043;-75
2022/07/03 03:09:42;;;;;;;3.35;1.20;;;17.70;99.90;;;;;;5054054;28;20484;-75
2022/07/03 03:12:09;;;;;;;3.10;1.23;;;17.70;99.90;;;;;;5054079;28;20025;-75
2022/07/03 03:14:40;;;;;;;5.45;1.40;;;17.60;99.90;;;;;;5054157;28;20465;-75
2022/07/03 03:17:08;;;;;;;7.38;1.33;;;17.60;99.90;;;;;;5052979;28;20044;-74
2022/07/03 03:19:44;;;;;;;5.18;1.10;;;17.60;99.90;;;;;;5053561;28;20554;-75
2022/07/03 03:22:49;;;;;;;7.95;1.40;;;17.60;99.90;;;;;;5053347;28;20033;-75
2022/07/03 03:25:15;;;;;;;5.80;1.25;;;17.60;99.90;;;;;;5053379;28;20456;-75
2022/07/03 03:27:41;;;;;;;4.50;1.10;;;17.50;99.90;;;;;;5053588;28;20029;-75
2022/07/03 03:30:07;;;;;;;11.32;1.50;;;17.50;99.90;;;;;;5053908;28;20393;-75
2022/07/03 03:32:36;;;;;;;7.05;1.42;;;17.50;99.90;;;;;;5053971;28;20099;-75
2022/07/03 03:35:02;;;;;;;4.70;1.13;;;17.50;99.90;;;;;;5054170;28;20075;-75
2022/07/03 03:37:28;;;;;;;5.80;1.48;;;17.40;99.90;;;;;;5053589;28;20039;-76
2022/07/03 03:39:54;;;;;;;4.68;1.15;;;17.50;99.90;;;;;;5053888;28;20025;-75
2022/07/03 03:42:19;;;;;;;5.63;1.30;;;17.40;99.90;;;;;;5053220;28;20028;-75
2022/07/03 03:44:45;;;;;;;8.95;1.48;;;17.40;99.90;;;;;;5052945;28;20063;-75
2022/07/03 03:47:10;;;;;;;5.00;1.35;;;17.40;99.90;;;;;;5052825;28;20021;-76
2022/07/03 03:49:36;;;;;;;6.45;1.38;;;17.40;99.90;;;;;;5053019;28;20040;-76
2022/07/03 03:52:02;;;;;;;5.10;1.42;;;17.30;99.90;;;;;;5052932;28;20035;-75
2022/07/03 03:54:28;;;;;;;6.00;1.45;;;17.30;99.90;;;;;;5052225;28;20096;-74
2022/07/03 03:56:53;;;;;;;8.13;1.48;;;17.30;99.90;;;;;;5052895;28;20032;-75
2022/07/03 03:59:19;;;;;;;5.63;1.35;;;17.30;99.90;;;;;;5052254;28;20057;-74
2022/07/03 04:01:46;;;;;;;5.55;1.80;;;17.20;99.90;;;;;;5051473;28;20032;-74
2022/07/03 04:04:12;;;;;;;7.40;1.50;;;17.20;99.90;;;;;;5052481;28;20047;-74
2022/07/03 04:06:37;;;;;;;6.38;1.52;;;17.20;99.90;;;;;;5052284;28;20049;-75
2022/07/03 04:09:03;;;;;;;6.13;1.50;;;17.10;99.90;;;;;;5052382;28;20456;-75
2022/07/03 04:11:29;;;;;;;11.95;1.90;;;17.10;99.90;;;;;;5037635;28;20022;-75
2022/07/03 04:13:54;;;;;;;6.13;1.75;;;17.10;99.90;;;;;;5038799;28;20321;-74
2022/07/03 04:16:20;;;;;;;6.22;1.80;;;17.10;99.90;;;;;;5052271;28;20154;-75
2022/07/03 04:18:45;;;;;;;4.47;1.55;;;17.10;99.90;;;;;;5047237;28;20535;-74
2022/07/03 04:21:11;;;;;;;7.68;1.70;;;17.10;99.90;;;;;;5042842;28;20051;-75
2022/07/03 04:23:36;;;;;;;7.55;1.88;;;17.10;99.90;;;;;;5052036;28;20495;-75
2022/07/03 04:26:06;;;;;;;8.38;2.20;;;17.10;99.90;;;;;;5051851;28;20017;-75
2022/07/03 04:28:32;;;;;;;7.00;2.17;;;17.10;99.90;;;;;;5052048;28;20388;-75
2022/07/03 04:30:58;;;;;;;11.07;1.92;;;17.10;99.90;;;;;;5051990;28;20032;-75
2022/07/03 04:33:23;;;;;;;10.90;1.92;;;17.10;99.90;;;;;;5052051;28;20412;-74
2022/07/03 04:35:49;;;;;;;7.25;2.00;;;17.10;99.90;;;;;;5051949;28;20059;-75
2022/07/03 04:38:14;;;;;;;7.30;2.00;;;17.10;99.90;;;;;;5051707;28;20021;-76
2022/07/03 04:40:40;;;;;;;8.18;2.22;;;17.10;99.90;;;;;;5051877;28;20027;-75
2022/07/03 04:43:06;;;;;;;9.40;2.05;;;17.10;99.90;;;;;;5051571;28;20021;-75
2022/07/03 04:45:31;;;;;;;9.45;2.30;;;17.10;99.90;;;;;;5051471;28;20032;-75
2022/07/03 04:47:57;;;;;;;6.18;2.20;;;17.10;99.90;;;;;;5051652;28;20025;-75
2022/07/03 04:50:23;;;;;;;10.65;2.78;;;17.10;99.90;;;;;;5051626;28;20079;-75
2022/07/03 04:52:48;;;;;;;8.18;2.25;;;17.10;99.90;;;;;;5051431;28;20380;-75
2022/07/03 04:55:14;;;;;;;7.55;2.08;;;17.20;99.90;;;;;;5051438;28;20025;-74
2022/07/03 04:57:40;;;;;;;7.10;2.20;;;17.20;99.90;;;;;;5051163;28;20025;-74
2022/07/03 05:00:06;;;;;;;12.10;2.40;;;17.20;99.90;;;;;;5042769;28;20373;-75
2022/07/03 05:02:32;;;;;;;6.85;2.00;;;17.20;99.90;;;;;;5045020;28;20107;-75
2022/07/03 05:04:58;;;;;;;7.95;2.20;;;17.20;99.90;;;;;;5048359;28;20108;-74
2022/07/03 05:07:23;;;;;;;4.72;1.98;;;17.20;99.90;;;;;;5030569;28;20621;-75
2022/07/03 05:09:49;;;;;;;9.38;2.30;;;17.20;99.90;;;;;;5031292;28;20067;-75
2022/07/03 05:12:14;;;;;;;11.07;2.25;;;17.20;99.90;;;;;;5037914;28;20032;-75
2022/07/03 05:14:40;;;;;;;10.50;2.42;;;17.20;99.90;;;;;;5051500;28;20040;-75
2022/07/03 05:17:05;;;;;;;10.02;2.70;;;17.20;99.90;;;;;;5033698;28;20473;-75
2022/07/03 05:19:31;;;;;;;8.10;2.40;;;17.20;99.90;;;;;;5030697;28;20441;-75
2022/07/03 05:21:57;;;;;;;8.93;2.60;;;17.20;99.90;;;;;;5032659;28;20086;-75
2022/07/03 05:24:23;;;;;;;14.05;2.85;;;17.20;99.90;;;;;;5029184;28;20270;-74
2022/07/03 05:26:49;;;;;;;9.60;2.50;;;17.20;99.90;;;;;;5028515;28;20075;-75
2022/07/03 05:29:15;;;;;;;8.27;2.50;;;17.20;99.90;;;;;;5027929;28;20075;-75
2022/07/03 05:31:41;;;;;;;13.23;2.90;;;17.20;99.90;;;;;;5028002;28;20682;-75
2022/07/03 05:34:06;;;;;;;9.65;2.72;;;17.30;99.90;;;;;;5045109;28;20489;-75
2022/07/03 05:36:32;;;;;;;12.10;2.92;;;17.30;99.90;;;;;;5029896;28;20378;-74
2022/07/03 05:41:41;;;;;;;8.43;2.70;;;17.30;99.90;;;;;;5034863;28;20059;-75
2022/07/03 05:44:07;;;;;;;9.85;2.78;;;17.30;99.90;;;;;;5032676;28;20021;-75
2022/07/03 05:46:32;;;;;;;13.45;3.30;;;17.40;99.90;;;;;;5037956;28;20506;-74
2022/07/03 05:48:58;;;;;;;11.73;2.75;;;17.40;99.90;;;;;;5037786;28;20416;-74
2022/07/03 05:51:24;;;;;;;12.93;3.05;;;17.40;99.90;;;;;;5039262;28;20056;-74
2022/07/03 05:53:49;;;;;;;8.90;2.97;;;17.40;99.90;;;;;;5037798;28;20041;-74
2022/07/03 05:56:15;;;;;;;11.77;3.95;;;17.40;99.90;;;;;;5032991;28;20026;-74
2022/07/03 05:58:41;;;;;;;11.80;3.47;;;17.50;99.90;;;;;;5030020;28;20045;-74
2022/07/03 06:01:07;;;;;;;10.82;3.90;;;17.50;99.90;;;;;;5038032;28;20469;-74
2022/07/03 06:03:32;;;;;;;14.77;3.53;;;17.40;99.90;;;;;;5029743;28;20389;-75
2022/07/03 06:05:59;;;;;;;12.68;3.15;;;17.50;99.90;;;;;;5029422;28;20021;-75
2022/07/03 06:08:25;;;;;;;14.38;3.75;;;17.50;99.90;;;;;;5029636;28;20025;-74
2022/07/03 06:10:50;;;;;;;12.35;2.92;;;17.60;99.90;;;;;;5029987;28;20469;-75
2022/07/03 06:13:16;;;;;;;10.35;3.13;;;17.60;99.90;;;;;;5045542;28;20472;-75
2022/07/03 06:15:41;;;;;;;9.68;3.03;;;17.60;99.90;;;;;;5049860;28;20037;-74
2022/07/03 06:18:07;;;;;;;14.02;3.00;;;17.70;99.90;;;;;;5050100;28;20018;-74
2022/07/03 06:20:32;;;;;;;10.80;3.15;;;17.80;99.90;;;;;;5049693;28;20025;-74
2022/07/03 06:22:58;;;;;;;12.60;3.15;;;17.90;99.90;;;;;;5049662;28;20040;-75
2022/07/03 06:25:24;;;;;;;14.85;2.85;;;18.00;99.90;;;;;;5049725;28;20044;-75
2022/07/03 06:27:49;;;;;;;11.13;3.17;;;18.20;99.90;;;;;;5049964;28;20100;-74
2022/07/03 06:30:15;;;;;;;10.85;3.03;;;18.30;99.90;;;;;;5049921;28;20017;-75
2022/07/03 06:32:40;;;;;;;7.43;2.90;;;18.40;99.90;;;;;;5049952;28;20396;-75
2022/07/03 06:35:06;;;;;;;12.68;2.90;;;18.60;99.90;;;;;;5049856;28;20040;-74
2022/07/03 06:37:32;;;;;;;10.88;2.85;;;18.60;99.90;;;;;;5049722;28;20020;-74
2022/07/03 06:39:57;;;;;;;10.13;3.05;;;18.70;99.90;;;;;;5049901;28;20035;-75
2022/07/03 06:42:23;;;;;;;11.00;2.83;;;18.70;99.90;;;;;;5049631;28;20017;-74
2022/07/03 06:44:48;;;;;;;9.70;2.30;;;18.80;99.90;;;;;;5049668;28;20041;-74
2022/07/03 06:47:15;;;;;;;8.70;3.28;;;18.90;99.90;;;;;;5049567;28;20032;-74
2022/07/03 06:49:43;;;;;;;8.15;2.80;;;18.90;99.90;;;;;;5049868;28;20035;-75
2022/07/03 06:52:09;;;;;;;8.85;2.50;;;18.90;99.90;;;;;;5052963;28;20021;-84
2022/07/03 06:54:37;;;;;;;7.38;2.33;;;18.90;99.90;;;;;;5049706;28;20489;-81
2022/07/03 06:57:04;;;;;;;11.73;2.72;;;19.00;99.90;;;;;;5035333;28;20104;-81
2022/07/03 06:59:29;;;;;;;11.05;2.90;;;19.00;99.90;;;;;;5038296;28;20029;-80
2022/07/03 07:01:55;;;;;;;7.60;2.40;;;19.00;99.90;;;;;;5054765;28;20028;-81
2022/07/03 07:04:20;;;;;;;11.05;2.97;;;19.10;99.90;;;;;;5055590;28;20481;-82
2022/07/03 07:06:46;;;;;;;7.07;2.38;;;19.10;99.90;;;;;;5048730;28;20034;-80
2022/07/03 07:09:11;;;;;;;11.07;2.70;;;19.20;99.90;;;;;;5033893;28;20025;-79
2022/07/03 07:11:37;;;;;;;9.40;2.33;;;19.40;99.90;;;;;;5039195;28;20026;-80
2022/07/03 07:14:02;;;;;;;11.60;2.53;;;19.50;99.90;;;;;;5033091;28;20385;-80
2022/07/03 07:16:29;;;;;;;9.45;2.50;;;19.60;99.90;;;;;;5032724;28;20159;-80
2022/07/03 07:18:54;;;;;;;13.68;2.80;;;19.70;99.90;;;;;;5033280;28;20176;-79
2022/07/03 07:21:20;;;;;;;14.90;2.67;;;19.70;99.90;;;;;;5032584;28;20136;-81
2022/07/03 07:23:46;;;;;;;8.90;2.42;;;19.80;99.90;;;;;;5032744;28;20891;-80
2022/07/03 07:26:11;;;;;;;9.65;2.25;;;19.90;99.90;;;;;;5030815;28;20025;-82
2022/07/03 07:28:37;;;;;;;6.72;2.10;;;20.00;99.90;;;;;;5038030;28;20025;-82
2022/07/03 07:31:03;;;;;;;5.00;2.30;;;20.00;99.90;;;;;;5032096;28;20095;-81
2022/07/03 07:33:29;;;;;;;5.13;2.00;;;20.10;99.90;;;;;;5032360;28;20032;-82
2022/07/03 07:35:54;;;;;;;4.50;2.00;;;20.20;99.90;;;;;;5034087;28;20032;-82
2022/07/03 07:38:20;;;;;;;9.65;2.10;;;20.20;99.90;;;;;;5037441;28;20025;-82
2022/07/03 07:40:46;;;;;;;9.32;2.45;;;20.20;99.90;;;;;;5032783;28;20020;-81
2022/07/03 07:43:12;;;;;;;6.63;2.15;;;20.30;99.90;;;;;;5041714;28;20028;-81
2022/07/03 07:45:38;;;;;;;5.97;2.20;;;20.30;99.90;;;;;;5035928;28;20405;-81
2022/07/03 07:48:04;;;;;;;7.13;2.30;;;20.40;99.90;;;;;;5034318;28;20071;-81
2022/07/03 07:50:30;;;;;;;5.38;2.00;;;20.40;99.90;;;;;;5045119;28;20388;-81
2022/07/03 07:52:55;;;;;;;5.10;1.70;;;20.40;99.90;;;;;;5031622;28;20017;-80
2022/07/03 07:55:21;;;;;;;5.75;1.88;;;20.40;99.90;;;;;;5034633;28;20288;-80
2022/07/03 07:57:48;;;;;;;7.03;1.80;;;20.30;99.90;;;;;;5031594;28;20029;-79
2022/07/03 08:00:16;;;;;;;7.65;2.03;;;20.20;99.90;;;;;;5032076;28;20032;-80
2022/07/03 08:05:36;;;;;;;;;;;20.10;99.90;;;;;;5032683;28;20041;-80
2022/07/03 08:08:03;;;;;;;6.00;1.88;;;20.10;99.90;;;;;;5035799;28;19908;-80
2022/07/03 08:10:33;;;;;;;5.78;2.05;;;20.30;99.90;;;;;;5037151;28;20071;-80
2022/07/03 08:12:58;;;;;;;5.65;1.98;;;20.40;99.90;;;;;;5037792;28;20022;-79
2022/07/03 08:15:24;;;;;;;6.50;1.83;;;20.50;99.90;;;;;;5031493;28;20425;-80
2022/07/03 08:17:49;;;;;;;9.63;2.13;;;20.60;99.90;;;;;;5032801;28;20021;-79
2022/07/03 08:20:15;;;;;;;3.67;1.63;;;20.70;99.90;;;;;;5032523;28;20017;-80
2022/07/03 08:22:40;;;;;;;6.13;1.73;;;20.80;99.90;;;;;;5032495;28;20053;-80
2022/07/03 08:25:06;;;;;;;10.32;2.35;;;20.90;99.90;;;;;;5032366;28;20025;-80
2022/07/03 08:27:32;;;;;;;6.80;2.03;;;21.00;99.90;;;;;;5033095;28;20076;-80
2022/07/03 08:29:57;;;;;;;4.80;1.52;;;21.10;99.90;;;;;;5032027;28;20022;-78
2022/07/03 08:32:23;;;;;;;7.68;2.08;;;21.10;99.90;;;;;;5031755;28;20021;-78
2022/07/03 08:34:48;;;;;;;5.85;1.60;;;21.00;99.90;;;;;;5031547;28;20029;-82
2022/07/03 08:37:14;;;;;;;8.40;1.90;;;21.10;99.90;;;;;;5045909;28;20370;-80
2022/07/03 08:39:39;;;;;;;5.43;1.67;;;21.10;99.90;;;;;;5031287;28;20020;-80
2022/07/03 08:42:06;;;;;;;7.72;2.05;;;21.00;99.90;;;;;;5031245;28;20427;-80
2022/07/03 08:44:35;;;;;;;4.50;1.73;;;21.10;99.90;;;;;;5031173;28;20060;-81
2022/07/03 08:47:03;;;;;;;7.57;1.70;;;21.10;99.90;;;;;;5029856;28;20037;-80
2022/07/03 08:49:29;;;;;;;4.25;1.58;;;21.20;99.90;;;;;;5034184;28;20021;-73
2022/07/03 08:51:55;;;;;;;3.90;1.70;;;21.10;99.90;;;;;;5038946;28;20075;-74
2022/07/03 08:54:21;;;;;;;5.55;1.60;;;21.10;99.90;;;;;;5030846;28;20053;-75
2022/07/03 08:56:47;;;;;;;5.55;1.50;;;21.00;99.90;;;;;;5030878;28;20033;-74
2022/07/03 08:59:13;;;;;;;6.63;1.40;;;21.00;99.90;;;;;;5030625;28;20034;-74
2022/07/03 09:01:41;;;;;;;3.78;1.30;;;20.90;99.90;;;;;;5030726;28;20542;-74
2022/07/03 09:04:11;;;;;;;5.43;1.40;;;20.80;99.90;;;;;;5029989;28;20030;-74
2022/07/03 09:06:38;;;;;;;4.10;1.20;;;20.60;99.90;;;;;;5032686;28;20033;-74
2022/07/03 09:09:03;;;;;;;5.78;1.40;;;20.40;99.90;;;;;;5038044;28;20083;-74
2022/07/03 09:11:30;;;;;;;5.18;1.85;;;20.30;99.90;;;;;;5031005;28;20029;-74
2022/07/03 09:13:55;;;;;;;3.50;1.30;;;20.20;99.90;;;;;;5049865;28;20021;-73
2022/07/03 09:16:21;;;;;;;2.15;1.05;;;20.10;99.90;;;;;;5050605;28;20029;-73
2022/07/03 09:18:46;;;;;;;2.20;1.10;;;20.00;99.90;;;;;;5050642;28;20028;-73
2022/07/03 09:21:13;;;;;;;4.40;1.00;;;19.90;99.90;;;;;;5050466;28;20396;-74
2022/07/03 09:23:43;;;;;;;3.72;1.30;;;19.90;99.90;;;;;;5050239;28;20025;-73
2022/07/03 09:26:19;;;;;;;4.00;1.17;;;19.90;99.90;;;;;;5050491;28;20029;-73
2022/07/03 09:28:47;;;;;;;2.92;1.33;;;19.90;99.90;;;;;;5050408;28;20496;-74
2022/07/03 09:31:14;;;;;;;2.22;1.00;;;20.10;99.90;;;;;;5045494;28;20037;-74
2022/07/03 09:34:00;;;;;;;3.08;1.10;;;20.30;99.90;;;;;;5034705;28;20108;-74
2022/07/03 09:36:45;;;;;;;4.32;1.35;;;20.40;99.90;;;;;;5049759;28;20879;-74
2022/07/03 09:39:25;;;;;;;7.85;1.90;;;20.50;99.90;;;;;;5035558;28;20100;-74
2022/07/03 09:41:53;;;;;;;2.80;1.20;;;20.70;99.90;;;;;;5050581;28;20085;-74
2022/07/03 09:44:30;;;;;;;2.83;1.08;;;20.90;99.90;;;;;;5050023;28;20082;-74
2022/07/03 09:47:12;;;;;;;2.50;1.00;;;21.00;99.90;;;;;;5050347;28;20091;-76
2022/07/03 09:49:44;;;;;;;5.10;1.17;;;21.20;99.90;;;;;;5056206;28;20035;-78
2022/07/03 09:52:25;;;;;;;4.97;1.27;;;21.20;99.90;;;;;;5056928;28;20071;-74
2022/07/03 09:54:51;;;;;;;2.53;1.20;;;21.20;99.90;;;;;;5030908;28;20032;-73
2022/07/03 09:57:18;;;;;;;3.75;2.05;;;21.20;99.90;;;;;;5030619;28;20029;-73
2022/07/03 09:59:44;;;;;;;3.97;1.27;;;21.20;99.90;;;;;;5030418;28;20025;-73
2022/07/03 10:02:10;;;;;;;3.05;1.10;;;21.10;99.90;;;;;;5030654;28;20075;-73
2022/07/03 10:04:35;;;;;;;2.58;1.23;;;21.10;99.90;;;;;;5030549;28;20064;-73
2022/07/03 10:07:03;;;;;;;2.22;1.17;;;21.10;99.90;;;;;;5030535;28;20041;-72
2022/07/03 10:09:34;;;;;;;4.45;1.00;;;21.20;99.90;;;;;;5030262;28;20014;-73
2022/07/03 10:12:01;;;;;;;3.25;1.15;;;21.20;99.90;;;;;;5035633;28;20410;-73
2022/07/03 10:14:29;;;;;;;1.10;1.00;;;21.20;99.90;;;;;;5050563;28;20025;-73
2022/07/03 10:16:57;;;;;;;4.03;1.60;;;21.20;99.90;;;;;;5049202;28;20082;-73
2022/07/03 10:19:28;;;;;;;7.32;3.58;;;21.30;99.90;;;;;;5050700;28;20482;-74
2022/07/03 10:21:56;;;;;;;2.97;1.00;;;21.20;99.90;;;;;;5050140;28;20098;-72
2022/07/03 10:24:24;;;;;;;2.22;0.82;;;21.10;99.90;;;;;;5050600;28;20021;-73
2022/07/03 10:26:52;;;;;;;5.03;1.20;;;21.00;99.90;;;;;;5052243;28;20495;-72
2022/07/03 10:29:23;;;;;;;5.03;1.23;;;20.90;99.90;;;;;;5054164;28;20025;-73
2022/07/03 10:31:49;;;;;;;3.33;1.10;;;20.80;99.90;;;;;;5051465;28;20056;-73
2022/07/03 10:34:23;;;;;;;3.53;1.02;;;20.80;99.90;;;;;;5033870;28;20378;-77
2022/07/03 10:37:03;;;;;;;1.85;0.90;;;20.80;99.90;;;;;;5039975;28;20044;-78
2022/07/03 10:46:10;;;;;;;1.80;0.83;;;20.60;99.90;;;;;;5050685;28;20044;-78
2022/07/03 10:48:55;;;;;;;3.85;0.90;;;20.60;99.90;;;;;;5039149;28;20030;-78
2022/07/03 10:51:21;;;;;;;1.77;0.90;;;20.60;99.90;;;;;;5036255;28;20080;-78
2022/07/03 10:53:47;;;;;;;3.65;1.08;;;20.70;99.90;;;;;;5036463;28;20026;-79
2022/07/03 10:56:14;;;;;;;3.03;1.00;;;20.80;99.90;;;;;;5035409;28;20105;-79
2022/07/03 10:59:00;;;;;;;4.93;0.88;;;20.90;99.90;;;;;;5037011;28;20374;-79
2022/07/03 11:01:27;;;;;;;3.80;1.10;;;21.00;99.90;;;;;;5036880;28;20509;-78
2022/07/03 11:03:57;;;;;;;2.90;1.10;;;21.10;99.90;;;;;;5032942;28;20049;-78
2022/07/03 11:06:43;;;;;;;3.08;1.30;;;21.30;99.90;;;;;;5032200;28;20121;-79
2022/07/03 11:09:11;;;;;;;3.55;1.52;;;21.40;99.90;;;;;;5026462;28;20038;-73
2022/07/03 11:11:55;;;;;;;6.72;3.17;;;21.40;99.90;;;;;;5034591;28;20072;-73
2022/07/03 11:14:23;;;;;;;3.13;1.33;;;21.40;99.90;;;;;;5053281;28;20036;-73
2022/07/03 11:17:09;;;;;;;2.75;1.10;;;21.20;99.90;;;;;;5052705;28;20107;-73
2022/07/03 11:19:34;;;;;;;;;;;21.10;99.90;;;;;;5053545;28;20025;-74
2022/07/03 11:22:10;;;;;;;1.92;1.05;;;21.00;99.90;;;;;;5052730;28;20379;-73
2022/07/03 11:24:45;;;;;;;4.85;1.30;;;20.90;99.90;;;;;;5053108;28;20060;-73
2022/07/03 11:27:27;;;;;;;3.70;1.13;;;21.00;99.90;;;;;;5052578;28;20031;-72
2022/07/03 11:29:58;;;;;;;2.47;1.00;;;21.10;99.90;;;;;;5054677;28;20372;-80
2022/07/03 11:32:47;;;;;;;5.07;1.20;;;21.40;99.90;;;;;;5054562;28;20033;-80
2022/07/03 11:35:42;;;;;;;3.45;0.90;;;21.60;99.90;;;;;;5040980;28;20032;-81
2022/07/03 11:38:08;;;;;;;5.65;1.10;;;21.90;99.90;;;;;;5032445;28;20385;-79
2022/07/03 11:40:36;;;;;;;4.35;1.27;;;22.00;99.90;;;;;;5036327;28;20474;-79
2022/07/03 11:43:01;;;;;;;2.72;1.10;;;22.20;99.90;;;;;;5036066;28;20048;-79
2022/07/03 11:45:31;;;;;;;2.63;0.90;;;22.30;99.90;;;;;;5043018;28;20025;-82
2022/07/03 11:47:56;;;;;;;3.47;1.10;;;22.20;99.90;;;;;;5033755;28;20048;-77
2022/07/03 11:50:36;;;;;;;3.65;1.02;;;22.00;99.90;;;;;;5032541;28;20036;-79
2022/07/03 11:53:25;;;;;;;2.90;1.13;;;21.60;99.90;;;;;;5035612;28;20024;-78
2022/07/03 11:56:05;;;;;;;3.88;1.20;;;21.40;99.90;;;;;;5038200;28;20028;-77
2022/07/03 11:58:51;;;;;;;2.33;0.90;;;21.20;99.90;;;;;;5048713;28;20026;-82
2022/07/03 12:01:25;;;;;;;3.83;1.13;;;21.10;99.90;;;;;;5049087;28;20033;-82
2022/07/03 12:04:15;;;;;;;5.63;1.10;;;20.90;99.90;;;;;;5062222;28;20025;-82
2022/07/03 12:06:52;;;;;;;3.55;1.15;;;20.90;99.90;;;;;;5046559;28;20040;-81
2022/07/03 12:09:26;;;;;;;6.15;1.08;;;20.80;99.90;;;;;;5054320;28;20021;-82
2022/07/03 12:12:09;;;;;;;3.60;1.30;;;20.80;99.90;;;;;;5059739;28;20048;-81
2022/07/03 12:14:48;;;;;;;4.72;1.17;;;20.90;99.90;;;;;;5061078;28;20109;-81
2022/07/03 12:17:19;;;;;;;4.43;1.10;;;21.00;99.90;;;;;;5040838;28;20033;-82
2022/07/03 12:19:49;;;;;;;7.18;2.13;;;21.20;99.90;;;;;;5054606;28;20084;-82
2022/07/03 12:22:35;;;;;;;4.57;1.27;;;21.40;99.90;;;;;;5054163;28;20060;-81
2022/07/03 12:25:03;;;;;;;5.68;1.20;;;21.50;99.90;;;;;;5060799;28;20021;-82
2022/07/03 12:27:32;;;;;;;2.63;1.10;;;21.60;99.90;;;;;;5050740;28;20065;-81
2022/07/03 12:29:58;;;;;;;3.20;1.10;;;21.70;99.90;;;;;;5065580;28;20024;-81
2022/07/03 12:32:24;;;;;;;2.33;1.00;;;21.90;99.90;;;;;;5040447;28;20013;-81
2022/07/03 12:34:50;;;;;;;2.90;1.08;;;21.90;99.90;;;;;;5051969;28;20005;-81
2022/07/03 12:37:16;;;;;;;1.50;0.90;;;21.90;99.90;;;;;;5049061;28;20536;-82
2022/07/03 12:39:45;;;;;;;2.83;0.95;;;21.90;99.90;;;;;;5047463;28;20053;-82
2022/07/03 12:42:18;;;;;;;3.85;1.10;;;21.70;99.90;;;;;;5045317;28;20030;-82
2022/07/03 12:44:57;;;;;;;3.95;1.40;;;21.60;99.90;;;;;;5050375;28;20097;-81
2022/07/03 12:47:24;;;;;;;2.65;1.15;;;21.60;99.90;;;;;;5054864;28;20132;-81
2022/07/03 12:49:57;;;;;;;3.83;1.30;;;21.50;99.90;;;;;;5065282;28;20042;-81
2022/07/03 12:52:23;;;;;;;3.05;1.00;;;21.60;99.90;;;;;;5060953;28;20017;-82
2022/07/03 12:54:48;;;;;;;5.80;1.13;;;21.60;99.90;;;;;;5054141;28;20021;-81
2022/07/03 13:00:07;;;;;;;5.85;1.20;;;21.40;99.90;;;;;;5048571;28;20491;-81
2022/07/03 13:02:34;;;;;;;5.65;1.25;;;21.30;99.90;;;;;;5044829;28;20114;-81
2022/07/03 13:05:01;;;;;;;4.07;1.10;;;21.30;99.90;;;;;;5040028;28;20021;-81
2022/07/03 13:07:31;;;;;;;4.90;1.50;;;21.30;99.90;;;;;;5049951;28;20392;-80
2022/07/03 13:10:00;;;;;;;6.43;1.13;;;21.40;99.90;;;;;;5050925;28;20389;-80
2022/07/03 13:12:26;;;;;;;4.30;1.65;;;21.60;99.90;;;;;;5062726;28;20047;-81